createdAt,value
2018-11-01T00:00:24.944Z,12.28
2018-11-01T00:02:54.059Z,12.30
2018-11-01T00:05:23.135Z,12.32
2018-11-01T00:07:52.403Z,12.32
2018-11-01T00:10:21.557Z,12.38
2018-11-01T00:12:51.026Z,12.35
2018-11-01T00:15:20.339Z,12.37
2018-11-01T00:17:49.439Z,12.40
2018-11-01T00:20:19.142Z,12.56
2018-11-01T00:22:48.406Z,12.57
2018-11-01T00:25:19.031Z,12.59
2018-11-01T00:27:48.036Z,12.59
2018-11-01T00:30:17.235Z,12.57
2018-11-01T00:32:46.404Z,12.51
2018-11-01T00:35:15.522Z,12.45
2018-11-01T00:37:44.755Z,12.45
2018-11-01T00:40:14.807Z,12.30
2018-11-01T00:42:44.883Z,12.28
2018-11-01T00:45:13.967Z,12.22
2018-11-01T00:47:43.023Z,12.25
2018-11-01T00:50:13.394Z,12.16
2018-11-01T00:52:42.930Z,11.95
2018-11-01T00:55:13.074Z,11.84
2018-11-01T00:57:42.743Z,11.74
2018-11-01T01:00:13.670Z,11.69
2018-11-01T01:02:43.089Z,11.69
2018-11-01T01:05:12.882Z,11.71
2018-11-01T01:07:41.819Z,11.75
2018-11-01T01:10:13.398Z,11.80
2018-11-01T01:12:42.941Z,11.82
2018-11-01T01:15:12.260Z,11.85
2018-11-01T01:17:41.402Z,11.84
2018-11-01T01:20:13.461Z,11.87
2018-11-01T01:22:43.858Z,11.92
2018-11-01T01:25:15.469Z,11.90
2018-11-01T01:27:44.724Z,11.93
2018-11-01T01:30:16.082Z,11.96
2018-11-01T01:32:45.738Z,12.01
2018-11-01T01:35:15.163Z,12.03
2018-11-01T01:37:44.478Z,12.08
2018-11-01T01:40:13.751Z,12.11
2018-11-01T01:42:48.208Z,12.15
2018-11-01T01:45:17.315Z,12.14
2018-11-01T01:47:46.322Z,12.25
2018-11-01T01:50:16.458Z,12.30
2018-11-01T01:52:46.118Z,12.37
2018-11-01T01:55:15.615Z,12.23
2018-11-01T01:57:44.697Z,12.14
2018-11-01T02:00:16.479Z,12.02
2018-11-01T02:02:47.583Z,12.00
2018-11-01T02:05:17.074Z,11.99
2018-11-01T02:07:46.227Z,11.92
2018-11-01T02:10:16.393Z,11.97
2018-11-01T02:12:45.468Z,11.85
2018-11-01T02:15:16.595Z,11.79
2018-11-01T02:17:46.027Z,11.82
2018-11-01T02:20:16.566Z,11.93
2018-11-01T02:22:46.270Z,11.96
2018-11-01T02:25:15.437Z,11.88
2018-11-01T02:27:49.526Z,11.79
2018-11-01T02:30:19.119Z,11.78
2018-11-01T02:32:48.267Z,11.87
2018-11-01T02:35:18.779Z,12.01
2018-11-01T02:37:48.041Z,12.06
2018-11-01T02:40:17.522Z,12.09
2018-11-01T02:42:47.106Z,12.10
2018-11-01T02:45:16.499Z,12.11
2018-11-01T02:47:45.615Z,12.07
2018-11-01T02:50:15.101Z,12.08
2018-11-01T02:52:44.262Z,12.03
2018-11-01T02:55:13.604Z,12.06
2018-11-01T02:57:42.759Z,12.16
2018-11-01T03:00:14.458Z,12.16
2018-11-01T03:02:43.478Z,12.15
2018-11-01T03:05:13.184Z,12.17
2018-11-01T03:07:42.498Z,12.14
2018-11-01T03:10:13.069Z,12.13
2018-11-01T03:12:42.446Z,12.16
2018-11-01T03:15:12.625Z,12.12
2018-11-01T03:17:41.785Z,12.08
2018-11-01T03:20:11.851Z,12.06
2018-11-01T03:22:40.992Z,12.09
2018-11-01T03:25:10.604Z,12.16
2018-11-01T03:27:39.707Z,12.19
2018-11-01T03:30:09.174Z,12.21
2018-11-01T03:32:38.974Z,12.24
2018-11-01T03:35:09.151Z,12.30
2018-11-01T03:37:38.242Z,12.25
2018-11-01T03:40:08.608Z,12.29
2018-11-01T03:42:38.117Z,12.27
2018-11-01T03:45:08.503Z,12.19
2018-11-01T03:47:37.842Z,12.28
2018-11-01T03:50:07.019Z,12.24
2018-11-01T03:52:36.347Z,12.14
2018-11-01T03:55:06.431Z,12.14
2018-11-01T03:57:35.807Z,12.08
2018-11-01T04:00:06.415Z,12.06
2018-11-01T04:02:35.607Z,11.93
2018-11-01T04:05:04.786Z,11.97
2018-11-01T04:07:33.991Z,12.00
2018-11-01T04:10:02.850Z,12.02
2018-11-01T04:12:32.104Z,11.93
2018-11-01T04:15:01.547Z,11.81
2018-11-01T04:17:30.787Z,11.85
2018-11-01T04:19:59.927Z,11.80
2018-11-01T04:22:29.122Z,11.83
2018-11-01T04:24:58.224Z,11.80
2018-11-01T04:27:27.619Z,11.84
2018-11-01T04:29:56.724Z,11.94
2018-11-01T04:32:25.987Z,11.90
2018-11-01T04:34:55.090Z,11.91
2018-11-01T04:37:24.407Z,11.91
2018-11-01T04:39:53.879Z,12.00
2018-11-01T04:42:22.955Z,11.94
2018-11-01T04:44:52.256Z,11.93
2018-11-01T04:47:21.436Z,11.96
2018-11-01T04:49:50.506Z,11.95
2018-11-01T04:52:19.895Z,12.03
2018-11-01T04:54:49.082Z,12.12
2018-11-01T04:57:18.064Z,12.11
2018-11-01T04:59:47.367Z,12.15
2018-11-01T05:02:16.554Z,12.21
2018-11-01T05:04:45.660Z,12.29
2018-11-01T05:07:14.963Z,12.43
2018-11-01T05:09:44.379Z,12.39
2018-11-01T05:12:13.559Z,12.43
2018-11-01T05:14:42.606Z,12.50
2018-11-01T05:17:11.963Z,12.39
2018-11-01T05:19:41.158Z,12.41
2018-11-01T05:22:10.379Z,12.43
2018-11-01T05:24:39.499Z,12.59
2018-11-01T05:27:09.025Z,12.62
2018-11-01T05:29:38.395Z,12.72
2018-11-01T05:32:07.666Z,12.66
2018-11-01T05:34:36.890Z,12.81
2018-11-01T05:37:06.572Z,12.97
2018-11-01T05:39:35.708Z,13.07
2018-11-01T05:42:04.842Z,13.10
2018-11-01T05:44:33.719Z,13.19
2018-11-01T05:47:03.028Z,13.34
2018-11-01T05:49:32.280Z,13.49
2018-11-01T05:52:01.574Z,13.60
2018-11-01T05:54:31.063Z,13.70
2018-11-01T05:57:00.073Z,13.82
2018-11-01T05:59:29.442Z,14.05
2018-11-01T06:02:00.598Z,14.24
2018-11-01T06:04:29.987Z,14.53
2018-11-01T06:06:59.050Z,14.81
2018-11-01T06:09:30.099Z,14.86
2018-11-01T06:11:59.207Z,14.79
2018-11-01T06:14:28.696Z,14.74
2018-11-01T06:16:58.189Z,14.72
2018-11-01T06:19:27.478Z,14.67
2018-11-01T06:21:56.911Z,14.70
2018-11-01T06:24:26.482Z,14.74
2018-11-01T06:26:56.444Z,14.64
2018-11-01T06:29:25.880Z,14.65
2018-11-01T06:31:55.551Z,14.70
2018-11-01T06:34:32.445Z,14.76
2018-11-01T06:37:02.556Z,14.74
2018-11-01T06:39:32.184Z,14.87
2018-11-01T06:42:01.388Z,14.92
2018-11-01T06:44:30.883Z,14.91
2018-11-01T06:46:59.962Z,14.92
2018-11-01T06:49:29.114Z,14.92
2018-11-01T06:51:58.906Z,14.93
2018-11-01T06:54:30.925Z,14.91
2018-11-01T06:57:00.785Z,15.01
2018-11-01T06:59:30.264Z,15.09
2018-11-01T07:01:59.398Z,15.14
2018-11-01T07:04:28.665Z,15.31
2018-11-01T07:06:57.898Z,15.44
2018-11-01T07:09:27.486Z,15.44
2018-11-01T07:11:57.106Z,15.68
2018-11-01T07:14:26.177Z,15.79
2018-11-01T07:16:55.515Z,15.80
2018-11-01T07:19:24.709Z,16.02
2018-11-01T07:21:53.741Z,16.18
2018-11-01T07:24:23.220Z,16.41
2018-11-01T07:26:52.551Z,16.35
2018-11-01T07:29:21.759Z,16.71
2018-11-01T07:31:51.048Z,16.94
2018-11-01T07:34:20.034Z,17.14
2018-11-01T07:36:49.403Z,17.22
2018-11-01T07:39:18.562Z,17.22
2018-11-01T07:41:47.743Z,17.23
2018-11-01T07:44:16.949Z,17.36
2018-11-01T07:46:46.238Z,17.62
2018-11-01T07:49:15.430Z,17.71
2018-11-01T07:51:44.713Z,17.90
2018-11-01T07:54:14.142Z,17.65
2018-11-01T07:56:43.310Z,17.95
2018-11-01T07:59:12.387Z,18.20
2018-11-01T08:01:41.667Z,18.27
2018-11-01T08:04:10.911Z,18.28
2018-11-01T08:06:39.940Z,18.37
2018-11-01T08:09:10.410Z,18.14
2018-11-01T08:11:40.057Z,18.20
2018-11-01T08:14:09.512Z,18.47
2018-11-01T08:16:38.787Z,18.48
2018-11-01T08:19:08.547Z,18.92
2018-11-01T08:21:37.786Z,19.05
2018-11-01T08:24:07.098Z,18.96
2018-11-01T08:26:36.226Z,19.30
2018-11-01T08:29:05.385Z,19.44
2018-11-01T08:31:34.668Z,19.51
2018-11-01T08:34:03.882Z,19.34
2018-11-01T08:36:33.085Z,19.40
2018-11-01T08:39:02.526Z,19.32
2018-11-01T08:41:31.671Z,19.19
2018-11-01T08:44:00.654Z,19.15
2018-11-01T08:46:29.896Z,19.28
2018-11-01T08:48:59.163Z,19.30
2018-11-01T08:51:28.403Z,19.14
2018-11-01T08:53:57.787Z,19.14
2018-11-01T08:56:27.074Z,19.34
2018-11-01T08:58:56.291Z,19.69
2018-11-01T09:01:25.495Z,19.81
2018-11-01T09:03:54.544Z,19.74
2018-11-01T09:06:23.592Z,19.50
2018-11-01T09:08:53.487Z,19.44
2018-11-01T09:11:22.333Z,19.76
2018-11-01T09:13:52.023Z,19.71
2018-11-01T09:16:21.431Z,19.61
2018-11-01T09:18:50.458Z,19.60
2018-11-01T09:21:19.662Z,19.72
2018-11-01T09:23:48.793Z,19.72
2018-11-01T09:26:17.642Z,19.84
2018-11-01T09:28:46.785Z,19.55
2018-11-01T09:31:15.963Z,19.98
2018-11-01T09:33:45.204Z,19.97
2018-11-01T09:36:14.245Z,19.89
2018-11-01T09:38:43.275Z,20.07
2018-11-01T09:41:12.405Z,19.89
2018-11-01T09:43:41.769Z,20.29
2018-11-01T09:46:11.212Z,20.58
2018-11-01T09:48:40.122Z,21.06
2018-11-01T09:51:09.210Z,21.03
2018-11-01T09:53:38.264Z,21.32
2018-11-01T09:56:07.389Z,21.53
2018-11-01T09:58:37.330Z,21.65
2018-11-01T10:01:06.456Z,21.65
2018-11-01T10:03:35.469Z,21.48
2018-11-01T10:06:04.570Z,21.30
2018-11-01T10:08:33.838Z,21.10
2018-11-01T10:11:03.118Z,21.00
2018-11-01T10:13:32.375Z,20.82
2018-11-01T10:16:01.653Z,20.73
2018-11-01T10:18:31.405Z,20.73
2018-11-01T10:21:00.232Z,20.76
2018-11-01T10:23:29.438Z,20.88
2018-11-01T10:25:58.993Z,20.65
2018-11-01T10:28:27.990Z,20.56
2018-11-01T10:30:57.321Z,20.48
2018-11-01T10:33:26.474Z,20.58
2018-11-01T10:35:55.886Z,20.77
2018-11-01T10:38:25.091Z,20.69
2018-11-01T10:40:54.477Z,20.93
2018-11-01T10:43:23.486Z,21.15
2018-11-01T10:45:52.578Z,21.12
2018-11-01T10:48:21.835Z,21.03
2018-11-01T10:50:50.762Z,21.15
2018-11-01T10:53:19.866Z,21.21
2018-11-01T10:55:49.034Z,21.20
2018-11-01T10:58:18.146Z,21.19
2018-11-01T11:00:52.671Z,21.43
2018-11-01T11:03:21.474Z,21.47
2018-11-01T11:05:50.266Z,21.60
2018-11-01T11:08:19.341Z,21.69
2018-11-01T11:10:48.372Z,21.83
2018-11-01T11:13:17.397Z,21.99
2018-11-01T11:15:46.347Z,21.77
2018-11-01T11:18:15.535Z,21.83
2018-11-01T11:20:44.610Z,21.89
2018-11-01T11:23:13.648Z,22.12
2018-11-01T11:25:42.962Z,22.20
2018-11-01T11:28:11.986Z,21.98
2018-11-01T11:30:41.172Z,21.70
2018-11-01T11:33:10.239Z,21.86
2018-11-01T11:35:39.546Z,21.52
2018-11-01T11:38:08.843Z,21.52
2018-11-01T11:40:37.827Z,21.53
2018-11-01T11:43:07.343Z,21.86
2018-11-01T11:45:36.070Z,21.75
2018-11-01T11:48:05.815Z,21.66
2018-11-01T11:50:34.866Z,21.79
2018-11-01T11:53:04.134Z,21.78
2018-11-01T11:55:32.967Z,21.88
2018-11-01T11:58:02.027Z,21.94
2018-11-01T12:00:31.094Z,22.03
2018-11-01T12:03:01.094Z,21.90
2018-11-01T12:05:30.429Z,21.79
2018-11-01T12:07:59.451Z,21.81
2018-11-01T12:10:29.031Z,22.12
2018-11-01T12:12:58.039Z,22.44
2018-11-01T12:15:27.446Z,22.46
2018-11-01T12:17:56.336Z,22.53
2018-11-01T12:20:25.431Z,22.19
2018-11-01T12:22:54.902Z,22.39
2018-11-01T12:25:24.090Z,22.29
2018-11-01T12:27:56.271Z,22.37
2018-11-01T12:30:25.298Z,22.24
2018-11-01T12:32:54.343Z,22.16
2018-11-01T12:35:23.405Z,22.40
2018-11-01T12:37:52.486Z,22.39
2018-11-01T12:40:21.671Z,22.23
2018-11-01T12:42:50.846Z,21.99
2018-11-01T12:45:20.274Z,21.81
2018-11-01T12:47:49.877Z,21.60
2018-11-01T12:50:18.825Z,21.61
2018-11-01T12:52:47.736Z,21.71
2018-11-01T12:55:17.411Z,21.95
2018-11-01T12:57:47.970Z,22.10
2018-11-01T13:00:17.095Z,22.09
2018-11-01T13:02:45.962Z,21.93
2018-11-01T13:05:15.496Z,21.93
2018-11-01T13:07:44.614Z,21.78
2018-11-01T13:10:13.639Z,21.60
2018-11-01T13:12:43.296Z,21.61
2018-11-01T13:15:12.926Z,21.73
2018-11-01T13:17:42.130Z,21.88
2018-11-01T13:20:11.941Z,21.91
2018-11-01T13:22:40.960Z,22.04
2018-11-01T13:25:12.850Z,21.90
2018-11-01T13:27:44.017Z,22.00
2018-11-01T13:30:15.927Z,22.14
2018-11-01T13:32:46.055Z,22.11
2018-11-01T13:35:17.663Z,21.96
2018-11-01T13:37:47.332Z,21.80
2018-11-01T13:40:16.671Z,21.76
2018-11-01T13:42:47.574Z,21.75
2018-11-01T13:45:18.783Z,21.63
2018-11-01T13:47:49.172Z,21.57
2018-11-01T13:50:18.223Z,21.68
2018-11-01T13:52:49.122Z,21.57
2018-11-01T13:55:18.135Z,21.65
2018-11-01T13:57:48.038Z,21.56
2018-11-01T14:00:17.228Z,21.50
2018-11-01T14:02:46.503Z,21.43
2018-11-01T14:05:17.809Z,21.40
2018-11-01T14:07:47.788Z,21.30
2018-11-01T14:10:17.195Z,21.28
2018-11-01T14:12:46.195Z,21.24
2018-11-01T14:15:15.639Z,21.18
2018-11-01T14:17:44.387Z,21.12
2018-11-01T14:20:13.965Z,21.03
2018-11-01T14:22:43.112Z,21.01
2018-11-01T14:25:12.883Z,20.98
2018-11-01T14:27:42.372Z,21.01
2018-11-01T14:30:14.801Z,20.95
2018-11-01T14:32:43.979Z,20.92
2018-11-01T14:35:13.407Z,20.92
2018-11-01T14:37:42.563Z,20.87
2018-11-01T14:40:12.918Z,20.89
2018-11-01T14:42:42.220Z,20.88
2018-11-01T14:45:12.492Z,20.79
2018-11-01T14:47:42.001Z,20.70
2018-11-01T14:50:11.674Z,20.65
2018-11-01T14:52:41.072Z,20.68
2018-11-01T14:55:11.628Z,20.67
2018-11-01T14:57:40.657Z,20.66
2018-11-01T15:00:09.790Z,20.66
2018-11-01T15:02:38.947Z,20.64
2018-11-01T15:05:08.639Z,20.66
2018-11-01T15:07:37.714Z,20.67
2018-11-01T15:10:08.751Z,20.72
2018-11-01T15:12:37.982Z,20.66
2018-11-01T15:15:08.036Z,20.64
2018-11-01T15:17:37.412Z,20.64
2018-11-01T15:20:06.587Z,20.65
2018-11-01T15:22:35.657Z,20.62
2018-11-01T15:25:04.670Z,20.65
2018-11-01T15:27:33.845Z,20.59
2018-11-01T15:30:03.237Z,20.64
2018-11-01T15:32:32.323Z,20.64
2018-11-01T15:35:01.453Z,20.57
2018-11-01T15:37:30.708Z,20.54
2018-11-01T15:40:00.117Z,20.58
2018-11-01T15:42:29.179Z,20.61
2018-11-01T15:44:58.427Z,20.55
2018-11-01T15:47:27.813Z,20.51
2018-11-01T15:49:56.942Z,20.47
2018-11-01T15:52:26.272Z,20.49
2018-11-01T15:54:55.570Z,20.45
2018-11-01T15:57:24.760Z,20.44
2018-11-01T15:59:53.843Z,20.44
2018-11-01T16:02:23.004Z,20.39
2018-11-01T16:04:52.120Z,20.35
2018-11-01T16:07:21.230Z,20.28
2018-11-01T16:09:50.353Z,20.22
2018-11-01T16:12:19.414Z,20.23
2018-11-01T16:14:48.715Z,20.28
2018-11-01T16:17:17.917Z,20.27
2018-11-01T16:19:47.229Z,20.24
2018-11-01T16:22:16.288Z,20.22
2018-11-01T16:24:45.439Z,20.16
2018-11-01T16:27:14.731Z,20.18
2018-11-01T16:29:43.822Z,20.09
2018-11-01T16:32:12.985Z,20.07
2018-11-01T16:34:42.106Z,20.07
2018-11-01T16:37:11.416Z,19.95
2018-11-01T16:39:40.518Z,19.93
2018-11-01T16:42:09.671Z,19.84
2018-11-01T16:44:38.869Z,19.82
2018-11-01T16:47:08.127Z,19.84
2018-11-01T16:49:37.314Z,19.83
2018-11-01T16:52:06.614Z,19.77
2018-11-01T16:54:35.971Z,19.74
2018-11-01T16:57:05.323Z,19.65
2018-11-01T16:59:35.250Z,19.62
2018-11-01T17:02:04.723Z,19.57
2018-11-01T17:04:33.888Z,19.36
2018-11-01T17:07:02.969Z,19.30
2018-11-01T17:09:32.235Z,19.17
2018-11-01T17:12:01.337Z,19.06
2018-11-01T17:14:30.880Z,18.97
2018-11-01T17:17:00.163Z,18.79
2018-11-01T17:19:29.354Z,18.78
2018-11-01T17:21:58.896Z,18.63
2018-11-01T17:24:28.252Z,18.55
2018-11-01T17:26:57.776Z,18.53
2018-11-01T17:29:27.460Z,18.52
2018-11-01T17:31:56.674Z,18.52
2018-11-01T17:34:26.019Z,18.60
2018-11-01T17:36:55.568Z,18.56
2018-11-01T17:39:24.599Z,18.53
2018-11-01T17:41:53.762Z,18.56
2018-11-01T17:44:23.083Z,18.55
2018-11-01T17:46:52.130Z,18.61
2018-11-01T17:49:21.264Z,18.67
2018-11-01T17:51:52.299Z,18.61
2018-11-01T17:54:21.521Z,18.60
2018-11-01T17:56:50.827Z,18.59
2018-11-01T17:59:20.101Z,18.66
2018-11-01T18:01:49.390Z,18.63
2018-11-01T18:04:18.514Z,18.64
2018-11-01T18:06:47.774Z,18.63
2018-11-01T18:09:16.919Z,18.60
2018-11-01T18:11:46.215Z,18.60
2018-11-01T18:14:15.153Z,18.60
2018-11-01T18:16:44.385Z,18.60
2018-11-01T18:19:13.624Z,18.54
2018-11-01T18:21:42.817Z,18.54
2018-11-01T18:24:12.119Z,18.56
2018-11-01T18:26:41.428Z,18.57
2018-11-01T18:29:10.922Z,18.46
2018-11-01T18:31:39.971Z,18.47
2018-11-01T18:34:09.232Z,18.48
2018-11-01T18:36:38.320Z,18.44
2018-11-01T18:39:08.614Z,18.43
2018-11-01T18:41:37.959Z,18.37
2018-11-01T18:44:07.148Z,18.37
2018-11-01T18:46:36.402Z,18.40
2018-11-01T18:49:05.887Z,18.41
2018-11-01T18:51:35.243Z,18.41
2018-11-01T18:54:06.209Z,18.41
2018-11-01T18:56:35.323Z,18.43
2018-11-01T18:59:04.499Z,18.36
2018-11-01T19:01:33.795Z,18.26
2018-11-01T19:04:02.865Z,18.29
2018-11-01T19:06:32.109Z,18.30
2018-11-01T19:09:01.375Z,18.34
2018-11-01T19:11:30.596Z,18.37
2018-11-01T19:13:59.976Z,18.37
2018-11-01T19:16:28.902Z,18.27
2018-11-01T19:18:58.066Z,18.30
2018-11-01T19:21:26.988Z,18.34
2018-11-01T19:23:56.109Z,18.34
2018-11-01T19:26:25.307Z,18.39
2018-11-01T19:28:54.689Z,18.36
2018-11-01T19:31:23.748Z,18.26
2018-11-01T19:33:53.050Z,18.19
2018-11-01T19:36:22.159Z,18.11
2018-11-01T19:38:51.354Z,18.07
2018-11-01T19:41:20.554Z,18.08
2018-11-01T19:43:49.907Z,18.01
2018-11-01T19:46:19.114Z,18.05
2018-11-01T19:48:48.279Z,18.03
2018-11-01T19:51:17.459Z,18.03
2018-11-01T19:53:46.515Z,18.06
2018-11-01T19:56:15.780Z,18.09
2018-11-01T19:58:44.931Z,18.26
2018-11-01T20:01:14.269Z,18.35
2018-11-01T20:03:43.900Z,18.49
2018-11-01T20:06:12.992Z,18.62
2018-11-01T20:08:42.325Z,18.64
2018-11-01T20:11:11.459Z,18.69
2018-11-01T20:13:41.135Z,18.79
2018-11-01T20:16:11.480Z,18.83
2018-11-01T20:18:40.792Z,18.84
2018-11-01T20:21:10.326Z,18.80
2018-11-01T20:23:39.618Z,18.81
2018-11-01T20:26:08.894Z,18.76
2018-11-01T20:28:37.696Z,18.70
2018-11-01T20:31:07.291Z,18.67
2018-11-01T20:33:36.608Z,18.61
2018-11-01T20:36:05.716Z,18.53
2018-11-01T20:38:35.213Z,18.51
2018-11-01T20:41:04.263Z,18.31
2018-11-01T20:43:33.490Z,18.21
2018-11-01T20:46:03.235Z,18.12
2018-11-01T20:48:32.372Z,18.12
2018-11-01T20:51:01.405Z,18.09
2018-11-01T20:53:30.599Z,17.95
2018-11-01T20:56:00.186Z,17.78
2018-11-01T20:58:29.475Z,17.77
2018-11-01T21:00:58.435Z,17.70
2018-11-01T21:03:27.762Z,17.68
2018-11-01T21:05:57.037Z,17.51
2018-11-01T21:08:26.499Z,17.37
2018-11-01T21:10:55.966Z,17.38
2018-11-01T21:13:25.040Z,17.22
2018-11-01T21:15:54.267Z,17.20
2018-11-01T21:18:23.520Z,17.15
2018-11-01T21:20:52.693Z,17.03
2018-11-01T21:23:22.544Z,16.97
2018-11-01T21:25:51.642Z,16.89
2018-11-01T21:28:20.695Z,16.83
2018-11-01T21:30:49.904Z,16.80
2018-11-01T21:33:18.990Z,16.71
2018-11-01T21:35:48.793Z,16.65
2018-11-01T21:38:17.831Z,16.59
2018-11-01T21:40:47.008Z,16.54
2018-11-01T21:43:16.234Z,16.55
2018-11-01T21:45:45.130Z,16.48
2018-11-01T21:48:14.708Z,16.46
2018-11-01T21:50:43.827Z,16.45
2018-11-01T21:53:13.023Z,16.42
2018-11-01T21:55:42.231Z,16.42
2018-11-01T21:58:11.423Z,16.38
2018-11-01T22:00:40.466Z,16.37
2018-11-01T22:03:09.528Z,16.33
2018-11-01T22:05:38.723Z,16.32
2018-11-01T22:08:07.762Z,16.22
2018-11-01T22:10:36.834Z,16.24
2018-11-01T22:13:06.179Z,16.21
2018-11-01T22:15:35.314Z,16.17
2018-11-01T22:18:04.473Z,16.11
2018-11-01T22:20:33.614Z,16.08
2018-11-01T22:23:07.375Z,16.08
2018-11-01T22:25:36.682Z,16.06
2018-11-01T22:28:06.834Z,16.05
2018-11-01T22:30:35.594Z,16.05
2018-11-01T22:33:04.987Z,16.08
2018-11-01T22:35:34.223Z,16.11
2018-11-01T22:38:03.521Z,16.10
2018-11-01T22:40:32.906Z,16.11
2018-11-01T22:43:02.005Z,16.12
2018-11-01T22:45:30.955Z,16.14
2018-11-01T22:47:59.980Z,16.18
2018-11-01T22:50:29.043Z,16.17
2018-11-01T22:52:58.163Z,16.17
2018-11-01T22:55:27.537Z,16.14
2018-11-01T22:57:56.646Z,16.16
2018-11-01T23:00:25.811Z,16.13
2018-11-01T23:02:55.359Z,16.11
2018-11-01T23:05:24.442Z,16.14
2018-11-01T23:07:53.558Z,16.10
2018-11-01T23:10:22.956Z,16.15
2018-11-01T23:12:52.140Z,16.06
2018-11-01T23:15:21.405Z,16.07
2018-11-01T23:17:51.070Z,16.09
2018-11-01T23:20:20.230Z,16.04
2018-11-01T23:22:49.243Z,16.11
2018-11-01T23:25:18.550Z,16.05
2018-11-01T23:27:47.823Z,16.05
2018-11-01T23:30:16.979Z,16.01
2018-11-01T23:32:46.148Z,16.00
2018-11-01T23:35:15.135Z,16.04
2018-11-01T23:37:49.514Z,16.02
2018-11-01T23:40:23.739Z,16.02
2018-11-01T23:42:58.051Z,16.07
2018-11-01T23:45:32.330Z,16.04
2018-11-01T23:48:00.711Z,16.05
2018-11-01T23:50:42.111Z,16.01
2018-11-01T23:53:18.510Z,16.07
2018-11-01T23:55:47.921Z,16.05
2018-11-01T23:58:16.944Z,16.08
